Time;durP1;ratioP1;P1;durP2;ratioP2;P2;SDS_P1;SDS_P2;PMS_P1;PMS_P2;Temp;Humidity;BMP_temperature;BMP_pressure;BME280_temperature;BME280_humidity;BME280_pressure;Samples;Min_cycle;Max_cycle;Signal;HPM_P1;HPM_P2
2024/01/01 00:00:33;;;;;;;27.55;14.30;;;9.40;99.90;;;;;;5029133;28;20225;-83
2024/01/01 00:03:14;;;;;;;29.75;19.25;;;9.50;99.90;;;;;;5014479;28;20305;-84
2024/01/01 00:05:51;;;;;;;30.65;19.05;;;9.50;99.90;;;;;;5028479;28;20203;-85
2024/01/01 00:08:22;;;;;;;16.10;11.00;;;9.60;99.90;;;;;;5030013;28;20224;-83
2024/01/01 00:11:03;;;;;;;13.15;9.02;;;9.70;99.90;;;;;;5032792;28;20295;-85
2024/01/01 00:13:42;;;;;;;20.00;11.32;;;9.60;99.90;;;;;;5021336;28;20235;-84
2024/01/01 00:16:41;;;;;;;24.38;14.80;;;9.60;99.90;;;;;;5029175;28;20235;-84
2024/01/01 00:19:24;;;;;;;11.02;7.82;;;9.60;99.90;;;;;;5028961;28;20211;-84
2024/01/01 00:22:02;;;;;;;16.60;9.48;;;9.60;99.90;;;;;;5029539;28;20233;-84
2024/01/01 00:24:33;;;;;;;19.73;9.98;;;9.60;99.90;;;;;;5024465;28;20245;-84
2024/01/01 00:27:13;;;;;;;10.05;5.70;;;9.60;99.90;;;;;;5031600;28;20206;-84
2024/01/01 00:30:20;;;;;;;38.42;17.58;;;9.60;99.90;;;;;;5028000;28;20210;-83
2024/01/01 00:32:51;;;;;;;9.60;6.75;;;9.60;99.90;;;;;;5028146;28;20225;-84
2024/01/01 00:35:21;;;;;;;10.48;7.05;;;9.60;99.90;;;;;;5027376;28;20232;-85
2024/01/01 00:37:52;;;;;;;14.20;7.28;;;9.50;99.90;;;;;;5029417;28;20213;-84
2024/01/01 00:40:36;;;;;;;12.35;6.70;;;9.50;99.90;;;;;;5035152;28;20210;-84
2024/01/01 00:43:16;;;;;;;11.68;5.68;;;9.50;99.90;;;;;;5030830;28;20285;-83
2024/01/01 00:46:23;;;;;;;;;;;;;;;;;;;;;
2024/01/01 00:48:57;;;;;;;11.70;6.50;;;9.60;99.90;;;;;;5023364;28;20217;-83
2024/01/01 00:51:28;;;;;;;9.68;4.88;;;9.50;99.90;;;;;;5031706;28;20276;-83
2024/01/01 00:54:02;;;;;;;5.70;4.40;;;9.50;99.90;;;;;;5034804;28;20198;-83
2024/01/01 00:56:37;;;;;;;11.90;5.50;;;9.60;99.90;;;;;;5027135;28;20189;-83
2024/01/01 00:59:20;;;;;;;10.63;6.22;;;9.50;99.90;;;;;;5031839;28;20271;-82
2024/01/01 01:01:48;;;;;;;14.75;9.75;;;9.50;99.90;;;;;;5033765;28;20231;-84
2024/01/01 01:04:18;;;;;;;14.85;7.65;;;9.50;99.90;;;;;;5027245;28;20196;-83
2024/01/01 01:06:48;;;;;;;7.32;5.32;;;9.50;99.90;;;;;;5028426;28;20202;-83
2024/01/01 01:09:22;;;;;;;19.35;16.33;;;9.50;99.90;;;;;;5030824;28;20185;-83
2024/01/01 01:12:08;;;;;;;12.15;7.05;;;9.60;99.90;;;;;;5031334;28;20239;-83
2024/01/01 01:14:45;;;;;;;10.63;6.45;;;9.40;99.90;;;;;;5031923;28;20220;-83
2024/01/01 01:17:17;;;;;;;20.95;7.10;;;9.40;99.90;;;;;;5036338;28;20209;-83
2024/01/01 01:19:46;;;;;;;14.15;7.07;;;9.50;99.90;;;;;;5036721;28;20193;-83
2024/01/01 01:22:22;;;;;;;30.65;15.73;;;9.40;99.90;;;;;;5037151;28;20221;-83
2024/01/01 01:24:58;;;;;;;13.13;8.70;;;9.40;99.90;;;;;;5035330;28;20197;-83
2024/01/01 01:27:35;;;;;;;10.25;7.20;;;9.40;99.90;;;;;;5036256;28;20220;-83
2024/01/01 01:30:07;;;;;;;13.60;8.10;;;9.30;99.90;;;;;;5036878;28;20193;-83
2024/01/01 01:32:54;;;;;;;11.63;9.15;;;9.40;99.90;;;;;;5037304;28;20213;-82
2024/01/01 01:35:35;;;;;;;13.80;7.80;;;9.50;99.90;;;;;;5021939;28;20202;-83
2024/01/01 01:38:13;;;;;;;14.93;7.93;;;9.40;99.90;;;;;;5025817;28;20292;-83
2024/01/01 01:40:50;;;;;;;14.73;7.53;;;9.50;99.90;;;;;;5026504;28;20704;-85
2024/01/01 01:43:29;;;;;;;11.32;7.63;;;9.50;99.90;;;;;;5013455;28;20200;-84
2024/01/01 01:46:03;;;;;;;13.20;8.15;;;9.50;99.90;;;;;;5026650;28;20212;-83
2024/01/01 01:48:34;;;;;;;11.30;7.47;;;9.50;99.90;;;;;;5016443;28;20201;-83
2024/01/01 01:51:10;;;;;;;15.35;7.55;;;9.40;99.90;;;;;;5012252;28;20312;-84
2024/01/01 01:53:50;;;;;;;9.43;5.80;;;9.30;99.90;;;;;;5025714;28;20220;-83
2024/01/01 01:59:14;;;;;;;11.20;6.15;;;9.60;99.90;;;;;;5021440;28;20209;-84
2024/01/01 02:01:45;;;;;;;13.90;7.30;;;9.60;99.90;;;;;;5015937;28;20240;-84
2024/01/01 02:04:15;;;;;;;8.15;6.28;;;9.60;99.90;;;;;;5025479;28;20251;-84
2024/01/01 02:06:49;;;;;;;14.43;9.63;;;9.70;99.90;;;;;;5022672;28;20230;-84
2024/01/01 02:09:20;;;;;;;13.60;9.10;;;9.60;99.90;;;;;;5026863;28;20189;-84
2024/01/01 02:11:56;;;;;;;15.75;9.15;;;9.60;99.90;;;;;;5012861;28;20656;-83
2024/01/01 02:14:28;;;;;;;15.38;8.27;;;9.50;99.90;;;;;;5017563;28;20267;-83
2024/01/01 02:16:57;;;;;;;20.00;9.93;;;9.60;99.90;;;;;;5025811;28;20269;-85
2024/01/01 02:19:30;;;;;;;10.57;6.03;;;9.60;99.90;;;;;;5025727;28;20205;-83
2024/01/01 02:22:04;;;;;;;12.13;5.93;;;9.70;99.90;;;;;;5028862;28;20252;-84
2024/01/01 02:24:39;;;;;;;19.60;7.53;;;9.70;99.90;;;;;;5029635;28;20208;-83
2024/01/01 02:27:11;;;;;;;12.07;6.97;;;9.70;99.90;;;;;;5028835;28;20231;-84
2024/01/01 02:29:46;;;;;;;15.68;8.07;;;9.70;99.90;;;;;;5027891;28;20198;-83
2024/01/01 02:32:22;;;;;;;13.00;6.88;;;9.60;99.90;;;;;;5018522;28;20294;-82
2024/01/01 02:35:07;;;;;;;13.82;8.50;;;9.70;99.90;;;;;;5027985;28;20201;-84
2024/01/01 02:37:44;;;;;;;14.10;7.30;;;9.60;99.90;;;;;;5021709;28;20208;-83
2024/01/01 02:40:23;;;;;;;13.95;6.07;;;9.80;99.90;;;;;;5028789;28;20243;-84
2024/01/01 02:43:01;;;;;;;18.90;7.45;;;9.80;99.90;;;;;;5025512;28;20221;-83
2024/01/01 02:45:39;;;;;;;13.60;10.77;;;9.80;99.90;;;;;;5033965;28;20212;-83
2024/01/01 02:48:12;;;;;;;18.92;9.23;;;9.80;99.90;;;;;;5029252;28;20205;-83
2024/01/01 02:50:45;;;;;;;14.23;6.40;;;9.70;99.90;;;;;;5022135;28;20205;-83
2024/01/01 02:53:23;;;;;;;11.23;6.88;;;9.80;99.90;;;;;;5034484;28;20224;-82
2024/01/01 02:56:15;;;;;;;10.60;8.05;;;9.70;99.90;;;;;;5031905;28;20191;-83
2024/01/01 02:58:57;;;;;;;20.08;9.00;;;9.80;99.90;;;;;;5021904;28;20313;-83
2024/01/01 03:01:39;;;;;;;16.70;8.85;;;9.70;99.90;;;;;;5025866;28;20227;-82
2024/01/01 03:04:11;;;;;;;21.42;11.02;;;9.70;99.90;;;;;;5031955;28;20193;-82
2024/01/01 03:06:42;;;;;;;16.65;9.18;;;9.70;99.90;;;;;;5023185;28;20274;-82
2024/01/01 03:09:15;;;;;;;21.00;12.13;;;9.50;99.90;;;;;;5022829;28;20238;-84
2024/01/01 03:12:04;;;;;;;19.33;12.73;;;9.60;99.90;;;;;;5022760;28;20285;-82
2024/01/01 03:14:32;;;;;;;21.17;12.45;;;9.60;99.90;;;;;;5034832;28;20209;-83
2024/01/01 03:17:12;;;;;;;37.60;20.77;;;9.60;99.90;;;;;;5042623;28;20281;-83
2024/01/01 03:19:44;;;;;;;18.83;12.40;;;9.50;99.90;;;;;;5022382;28;20220;-83
2024/01/01 03:22:33;;;;;;;22.02;13.02;;;9.70;99.90;;;;;;5028415;28;20221;-83
2024/01/01 03:28:17;;;;;;;23.77;15.70;;;9.70;99.90;;;;;;5023265;28;20675;-84
2024/01/01 03:30:49;;;;;;;26.65;15.18;;;9.60;99.90;;;;;;5011853;28;20556;-83
2024/01/01 03:33:21;;;;;;;29.08;15.85;;;9.70;99.90;;;;;;5025429;28;20221;-83
2024/01/01 03:36:07;;;;;;;16.73;12.45;;;9.60;99.90;;;;;;5026811;28;20220;-83
2024/01/01 03:39:04;;;;;;;26.45;16.50;;;9.60;99.90;;;;;;5026967;28;20201;-81
2024/01/01 03:41:48;;;;;;;27.63;16.95;;;9.60;99.90;;;;;;5013827;28;20865;-83
2024/01/01 03:44:21;;;;;;;33.88;17.25;;;9.70;99.90;;;;;;5025169;28;20213;-83
2024/01/01 03:46:56;;;;;;;22.73;14.45;;;9.70;99.90;;;;;;5021137;28;20240;-83
2024/01/01 03:49:25;;;;;;;41.97;18.63;;;9.70;99.90;;;;;;5017467;28;20217;-84
2024/01/01 03:51:56;;;;;;;27.42;18.33;;;9.80;99.90;;;;;;5022325;28;20221;-84
2024/01/01 03:54:33;;;;;;;28.10;16.30;;;9.70;99.90;;;;;;5012677;28;20219;-84
2024/01/01 03:57:11;;;;;;;27.88;15.40;;;9.60;99.90;;;;;;5029282;28;20193;-83
2024/01/01 03:59:49;;;;;;;25.77;15.82;;;9.70;99.90;;;;;;5020021;28;20276;-83
2024/01/01 04:02:35;;;;;;;33.35;19.20;;;9.70;99.90;;;;;;5030401;28;20517;-83
2024/01/01 04:05:09;;;;;;;29.55;17.90;;;9.60;99.90;;;;;;5028926;28;20232;-84
2024/01/01 04:07:39;;;;;;;35.33;17.98;;;9.80;99.90;;;;;;5016001;28;20201;-83
2024/01/01 04:10:24;;;;;;;28.20;17.67;;;9.70;99.90;;;;;;5011227;28;20318;-83
2024/01/01 04:13:00;;;;;;;29.30;18.60;;;9.70;99.90;;;;;;5020326;28;20245;-84
2024/01/01 04:16:02;;;;;;;28.15;17.92;;;9.60;99.90;;;;;;5015239;28;20213;-83
2024/01/01 04:18:35;;;;;;;30.02;18.55;;;9.70;99.90;;;;;;5021070;28;20205;-84
2024/01/01 04:21:07;;;;;;;26.85;15.43;;;9.60;99.90;;;;;;5019433;28;20256;-85
2024/01/01 04:23:39;;;;;;;21.42;14.57;;;9.80;99.90;;;;;;5018053;28;20213;-83
2024/01/01 04:26:11;;;;;;;26.85;18.13;;;9.70;99.90;;;;;;5026578;28;20220;-83
2024/01/01 04:28:49;;;;;;;23.75;15.15;;;9.70;99.90;;;;;;5017751;28;20210;-83
2024/01/01 04:31:26;;;;;;;20.55;16.33;;;9.70;99.90;;;;;;5015256;28;20222;-84
2024/01/01 04:33:59;;;;;;;25.13;15.20;;;9.70;99.90;;;;;;5025186;28;20619;-84
2024/01/01 04:36:40;;;;;;;23.15;14.32;;;9.60;99.90;;;;;;5029416;28;20219;-84
2024/01/01 04:39:21;;;;;;;19.45;11.65;;;9.70;99.90;;;;;;5029271;28;20237;-83
2024/01/01 04:42:13;;;;;;;23.95;12.73;;;9.70;99.90;;;;;;5016701;28;20324;-83
2024/01/01 04:44:55;;;;;;;19.50;13.20;;;9.70;99.90;;;;;;5024673;28;20225;-83
2024/01/01 04:47:24;;;;;;;21.08;12.50;;;9.70;99.90;;;;;;5028017;28;20197;-83
2024/01/01 04:49:54;;;;;;;24.30;13.10;;;9.70;99.90;;;;;;5021976;28;20213;-84
2024/01/01 04:52:32;;;;;;;19.98;9.85;;;9.50;99.90;;;;;;5029377;28;20217;-83
2024/01/01 04:55:05;;;;;;;18.58;10.05;;;9.50;99.90;;;;;;5031382;28;20296;-83
2024/01/01 04:57:46;;;;;;;20.27;11.10;;;9.50;99.90;;;;;;5021671;28;20228;-84
2024/01/01 05:00:21;;;;;;;17.63;9.57;;;9.50;99.90;;;;;;5026137;28;20220;-83
2024/01/01 05:03:02;;;;;;;16.33;8.60;;;9.50;99.90;;;;;;5020443;28;20225;-83
2024/01/01 05:05:42;;;;;;;14.38;9.65;;;9.50;99.90;;;;;;5025490;28;20205;-84
2024/01/01 05:11:07;;;;;;;13.38;8.45;;;9.50;99.90;;;;;;5014192;28;20264;-83
2024/01/01 05:13:37;;;;;;;17.92;9.00;;;9.40;99.90;;;;;;5017076;28;20225;-83
2024/01/01 05:16:17;;;;;;;13.52;8.02;;;9.50;99.90;;;;;;5020984;28;20202;-83
2024/01/01 05:18:59;;;;;;;11.57;6.65;;;9.40;99.90;;;;;;5024766;28;20206;-84
2024/01/01 05:21:36;;;;;;;11.93;6.07;;;9.30;99.90;;;;;;5018740;28;20305;-84
2024/01/01 05:24:05;;;;;;;9.63;6.68;;;9.30;99.90;;;;;;5025328;28;20212;-83
2024/01/01 05:26:34;;;;;;;9.63;7.05;;;9.40;99.90;;;;;;5020885;28;20245;-84
2024/01/01 05:29:12;;;;;;;16.33;8.45;;;9.30;99.90;;;;;;5024618;28;20220;-83
2024/01/01 05:31:43;;;;;;;13.90;5.85;;;9.20;99.90;;;;;;5016180;28;20230;-84
2024/01/01 05:34:23;;;;;;;11.40;5.75;;;9.20;99.90;;;;;;5020706;28;20226;-83
2024/01/01 05:36:55;;;;;;;12.48;6.82;;;9.20;99.90;;;;;;5027945;28;20206;-82
2024/01/01 05:39:36;;;;;;;11.63;6.70;;;9.20;99.90;;;;;;5029890;28;20202;-82
2024/01/01 05:42:11;;;;;;;19.13;6.95;;;9.20;99.90;;;;;;5032500;28;20333;-82
2024/01/01 05:44:41;;;;;;;14.25;7.38;;;9.00;99.90;;;;;;5030741;28;20200;-83
2024/01/01 05:47:10;;;;;;;9.65;5.95;;;9.10;99.90;;;;;;5036827;28;20229;-83
2024/01/01 05:49:52;;;;;;;12.95;6.65;;;9.10;99.90;;;;;;5037301;28;20220;-83
2024/01/01 05:52:31;;;;;;;11.25;5.40;;;9.10;99.90;;;;;;5031676;28;20240;-82
2024/01/01 05:54:59;;;;;;;10.43;5.93;;;9.10;99.90;;;;;;5035759;28;20206;-81
2024/01/01 05:57:33;;;;;;;12.35;5.75;;;8.90;99.90;;;;;;5031317;28;20217;-83
2024/01/01 06:00:03;;;;;;;10.50;5.18;;;9.00;99.90;;;;;;5034108;28;20213;-83
2024/01/01 06:02:35;;;;;;;13.82;6.57;;;8.70;99.90;;;;;;5032616;28;20225;-83
2024/01/01 06:05:18;;;;;;;12.25;6.35;;;8.70;99.90;;;;;;5033960;28;20213;-83
2024/01/01 06:07:51;;;;;;;11.82;5.97;;;8.80;99.90;;;;;;5029045;28;20219;-82
2024/01/01 06:10:26;;;;;;;12.10;6.05;;;8.70;99.90;;;;;;5017761;28;20233;-84
2024/01/01 06:12:59;;;;;;;14.07;6.57;;;8.60;99.90;;;;;;5033355;28;20220;-82
2024/01/01 06:15:32;;;;;;;14.35;6.47;;;8.50;99.90;;;;;;5028006;28;20197;-83
2024/01/01 06:18:06;;;;;;;13.27;6.53;;;8.60;99.90;;;;;;5032430;28;20197;-83
2024/01/01 06:20:38;;;;;;;10.30;7.20;;;8.50;99.90;;;;;;5033572;28;20232;-83
2024/01/01 06:23:15;;;;;;;11.00;4.95;;;8.40;99.90;;;;;;5022809;28;20225;-82
2024/01/01 06:25:44;;;;;;;9.88;7.57;;;8.30;99.90;;;;;;5027112;28;20454;-83
2024/01/01 06:28:14;;;;;;;12.15;7.43;;;8.30;99.90;;;;;;5027627;28;20228;-82
2024/01/01 06:30:46;;;;;;;11.18;6.22;;;8.20;99.90;;;;;;5026252;28;20288;-83
2024/01/01 06:33:14;;;;;;;14.48;6.40;;;8.10;99.90;;;;;;5019320;28;20289;-84
2024/01/01 06:35:44;;;;;;;13.07;6.50;;;8.10;99.90;;;;;;5031439;28;20213;-83
2024/01/01 06:38:12;;;;;;;10.60;4.47;;;8.10;99.90;;;;;;5033266;28;20220;-82
2024/01/01 06:40:43;;;;;;;12.07;5.95;;;8.00;99.90;;;;;;5026608;28;20228;-82
2024/01/01 06:43:11;;;;;;;9.50;5.45;;;8.00;99.90;;;;;;5028503;28;20256;-83
2024/01/01 06:45:44;;;;;;;12.50;5.38;;;8.00;99.90;;;;;;5027587;28;20205;-83
2024/01/01 06:48:12;;;;;;;8.88;5.03;;;8.10;99.90;;;;;;5019354;28;20197;-84
2024/01/01 06:50:39;;;;;;;5.72;4.25;;;8.10;99.90;;;;;;5026603;28;20256;-83
2024/01/01 06:53:08;;;;;;;10.68;5.70;;;8.20;99.90;;;;;;5025301;28;20221;-85
2024/01/01 06:55:36;;;;;;;11.07;4.20;;;8.20;99.90;;;;;;5025123;28;20209;-84
2024/01/01 06:58:03;;;;;;;8.85;5.32;;;8.30;99.90;;;;;;5025395;28;20213;-82
2024/01/01 07:00:31;;;;;;;6.10;3.97;;;8.20;99.90;;;;;;5027194;28;20259;-83
2024/01/01 07:03:01;;;;;;;15.68;5.25;;;8.20;99.90;;;;;;5021365;28;20232;-84
2024/01/01 07:05:33;;;;;;;16.38;5.20;;;8.20;99.90;;;;;;5023872;28;20213;-82
2024/01/01 07:08:03;;;;;;;12.70;5.70;;;8.20;99.90;;;;;;5025862;28;20277;-84
2024/01/01 07:10:32;;;;;;;9.25;5.40;;;8.20;99.90;;;;;;5016017;28;20205;-83
2024/01/01 07:12:59;;;;;;;8.93;4.53;;;8.20;99.90;;;;;;5019243;28;20205;-83
2024/01/01 07:15:30;;;;;;;10.13;4.55;;;8.10;99.90;;;;;;5022766;28;20201;-83
2024/01/01 07:18:05;;;;;;;9.20;5.20;;;8.10;99.90;;;;;;5025895;28;20202;-84
2024/01/01 07:20:32;;;;;;;6.05;5.30;;;8.20;99.90;;;;;;5020228;28;20300;-83
2024/01/01 07:23:00;;;;;;;10.38;5.32;;;8.20;99.90;;;;;;5025263;28;20688;-83
2024/01/01 07:25:35;;;;;;;9.35;4.57;;;8.30;99.90;;;;;;5018809;28;20620;-83
2024/01/01 07:28:03;;;;;;;16.30;5.60;;;8.20;99.90;;;;;;5008490;28;20292;-82
2024/01/01 07:30:44;;;;;;;8.93;4.38;;;8.20;99.90;;;;;;5019581;28;20213;-83
2024/01/01 07:33:13;;;;;;;8.15;4.05;;;8.20;99.90;;;;;;5018034;28;20285;-84
2024/01/01 07:35:44;;;;;;;11.52;6.00;;;8.20;99.90;;;;;;5018241;28;20225;-82
2024/01/01 07:38:18;;;;;;;7.68;4.70;;;8.30;99.90;;;;;;5024635;28;20228;-83
2024/01/01 07:40:51;;;;;;;10.18;5.45;;;8.30;99.90;;;;;;5020592;28;20209;-82
2024/01/01 07:43:18;;;;;;;14.25;5.18;;;8.30;99.90;;;;;;5025230;28;20307;-83
2024/01/01 07:45:48;;;;;;;11.32;5.00;;;8.30;99.90;;;;;;5020909;28;20224;-83
2024/01/01 07:48:19;;;;;;;7.63;3.92;;;8.30;99.90;;;;;;5024350;28;20629;-82
2024/01/01 07:50:47;;;;;;;13.55;4.43;;;8.30;99.90;;;;;;5020976;28;20645;-83
2024/01/01 07:53:19;;;;;;;8.07;4.30;;;8.10;99.90;;;;;;5020833;28;20212;-83
2024/01/01 07:55:48;;;;;;;10.27;4.40;;;8.30;99.90;;;;;;5020154;28;20300;-83
2024/01/01 07:58:23;;;;;;;10.75;3.35;;;8.30;99.90;;;;;;5029942;28;20204;-83
2024/01/01 08:00:50;;;;;;;8.10;3.65;;;8.30;99.90;;;;;;5030000;28;20224;-84
2024/01/01 08:03:28;;;;;;;;;;;;;;;;;;;;;
2024/01/01 08:05:55;;;;;;;10.75;4.20;;;8.40;99.90;;;;;;5029051;28;20286;-83
2024/01/01 08:08:26;;;;;;;6.50;4.07;;;8.20;99.90;;;;;;5027536;28;20205;-82
2024/01/01 08:10:58;;;;;;;10.60;4.43;;;8.30;99.90;;;;;;5027293;28;20221;-82
2024/01/01 08:13:28;;;;;;;9.20;3.08;;;8.30;99.90;;;;;;5026754;28;20217;-83
2024/01/01 08:15:56;;;;;;;13.05;4.93;;;8.40;99.90;;;;;;5022589;28;20202;-83
2024/01/01 08:18:28;;;;;;;8.27;3.80;;;8.40;99.90;;;;;;5016445;28;20197;-84
2024/01/01 08:20:56;;;;;;;10.35;3.78;;;8.40;99.90;;;;;;5026978;28;20253;-83
2024/01/01 08:23:26;;;;;;;5.50;3.90;;;8.40;99.90;;;;;;5027070;28;20221;-83
2024/01/01 08:25:56;;;;;;;6.38;4.00;;;8.50;99.90;;;;;;5019640;28;20724;-83
2024/01/01 08:28:24;;;;;;;5.43;3.22;;;8.50;99.90;;;;;;5025585;28;20221;-84
2024/01/01 08:30:54;;;;;;;6.50;3.25;;;8.50;99.90;;;;;;5028744;28;20304;-82
2024/01/01 08:33:24;;;;;;;7.55;3.67;;;8.60;99.90;;;;;;5025633;28;20264;-83
2024/01/01 08:35:55;;;;;;;15.35;4.65;;;8.60;99.90;;;;;;5028156;28;20483;-83
2024/01/01 08:38:28;;;;;;;10.27;4.65;;;8.50;99.90;;;;;;5019004;28;20229;-83
2024/01/01 08:40:58;;;;;;;10.95;5.35;;;8.50;99.90;;;;;;5023214;28;20256;-83
2024/01/01 08:43:28;;;;;;;9.85;3.53;;;8.50;99.90;;;;;;5025960;28;20221;-83
2024/01/01 08:46:02;;;;;;;11.80;3.83;;;8.60;99.90;;;;;;5027909;28;20221;-83
2024/01/01 08:48:29;;;;;;;12.38;4.20;;;8.60;99.90;;;;;;5036409;28;20220;-81
2024/01/01 08:50:56;;;;;;;11.48;3.80;;;8.50;99.90;;;;;;5032063;28;20219;-82
2024/01/01 08:53:29;;;;;;;8.98;4.25;;;8.60;99.90;;;;;;5030953;28;20190;-83
2024/01/01 08:55:58;;;;;;;7.57;3.28;;;8.60;99.90;;;;;;5038515;28;20197;-83
2024/01/01 08:58:25;;;;;;;7.90;4.40;;;8.70;99.90;;;;;;5035107;28;20186;-82
2024/01/01 09:00:53;;;;;;;11.30;4.38;;;8.80;99.90;;;;;;5033693;28;20212;-83
2024/01/01 09:03:27;;;;;;;8.00;4.50;;;8.70;99.90;;;;;;5038244;28;20229;-82
2024/01/01 09:05:56;;;;;;;12.80;4.10;;;8.80;99.90;;;;;;5028074;28;20205;-82
2024/01/01 09:08:25;;;;;;;8.95;3.20;;;8.80;99.90;;;;;;5028472;28;20212;-83
2024/01/01 09:10:54;;;;;;;8.95;3.60;;;8.60;99.90;;;;;;5035382;28;20205;-83
2024/01/01 09:13:28;;;;;;;9.65;3.53;;;8.80;99.90;;;;;;5035990;28;20197;-83
2024/01/01 09:15:55;;;;;;;10.70;4.13;;;8.80;99.90;;;;;;5038431;28;20269;-83
2024/01/01 09:18:27;;;;;;;8.85;2.70;;;8.80;99.90;;;;;;5035813;28;20205;-83
2024/01/01 09:20:54;;;;;;;6.50;3.00;;;8.80;99.90;;;;;;5037429;28;20209;-82
2024/01/01 09:23:26;;;;;;;9.75;3.53;;;8.60;99.90;;;;;;5028950;28;20217;-82
2024/01/01 09:25:59;;;;;;;15.15;3.25;;;8.70;99.90;;;;;;5015844;28;20212;-82
2024/01/01 09:28:33;;;;;;;7.10;2.80;;;8.80;99.90;;;;;;5029540;28;20197;-82
2024/01/01 09:31:01;;;;;;;4.68;2.72;;;8.80;99.90;;;;;;5027279;28;20240;-82
2024/01/01 09:33:28;;;;;;;6.22;2.55;;;8.80;99.90;;;;;;5022249;28;20212;-82
2024/01/01 09:35:59;;;;;;;6.40;2.65;;;8.80;99.90;;;;;;5020830;28;20201;-82
2024/01/01 09:38:26;;;;;;;15.98;3.30;;;8.80;99.90;;;;;;5019082;28;20205;-83
2024/01/01 09:40:56;;;;;;;7.53;2.10;;;8.80;99.90;;;;;;5018579;28;20795;-82
2024/01/01 09:43:23;;;;;;;14.80;2.72;;;8.80;99.90;;;;;;5022636;28;20217;-81
2024/01/01 09:46:07;;;;;;;3.65;1.63;;;8.70;99.90;;;;;;5023937;28;20236;-82
2024/01/01 09:48:37;;;;;;;12.38;3.90;;;8.80;99.90;;;;;;5026386;28;20216;-84
2024/01/01 09:51:12;;;;;;;6.68;3.13;;;8.80;99.90;;;;;;5018811;28;20232;-83
2024/01/01 09:53:44;;;;;;;9.23;2.88;;;8.90;99.90;;;;;;5018882;28;20469;-83
2024/01/01 09:56:15;;;;;;;9.85;2.70;;;8.90;99.90;;;;;;5016013;28;20292;-82
2024/01/01 09:58:49;;;;;;;10.68;3.65;;;8.90;99.90;;;;;;5025539;28;20212;-84
2024/01/01 10:01:24;;;;;;;10.40;3.75;;;8.90;99.90;;;;;;5027444;28;20228;-82
2024/01/01 10:04:07;;;;;;;7.60;2.78;;;8.90;99.90;;;;;;5029262;28;20227;-86
2024/01/01 10:06:44;;;;;;;14.18;3.10;;;8.90;99.90;;;;;;5029518;28;20550;-82
2024/01/01 10:09:14;;;;;;;9.07;3.15;;;9.00;99.90;;;;;;5027788;28;20209;-84
2024/01/01 10:11:46;;;;;;;11.30;2.45;;;8.90;99.90;;;;;;5021962;28;20231;-83
2024/01/01 10:14:14;;;;;;;6.25;2.70;;;8.90;99.90;;;;;;5022480;28;20209;-83
2024/01/01 10:16:46;;;;;;;13.70;3.00;;;8.80;99.90;;;;;;5030413;28;20212;-83
2024/01/01 10:19:19;;;;;;;8.55;3.45;;;8.80;99.90;;;;;;5026281;28;20292;-82
2024/01/01 10:21:50;;;;;;;7.22;2.75;;;8.90;99.90;;;;;;5017745;28;20638;-84
2024/01/01 10:24:22;;;;;;;5.70;2.50;;;8.80;99.90;;;;;;5027201;28;20232;-85
2024/01/01 10:26:50;;;;;;;7.72;2.00;;;8.90;99.90;;;;;;5021386;28;20205;-82
2024/01/01 10:29:20;;;;;;;9.43;2.40;;;8.90;99.90;;;;;;5027557;28;20570;-84
2024/01/01 10:31:52;;;;;;;5.90;2.17;;;8.90;99.90;;;;;;5032563;28;20205;-82
2024/01/01 10:34:22;;;;;;;9.82;4.20;;;9.00;99.90;;;;;;5033940;28;20194;-82
2024/01/01 10:36:52;;;;;;;11.45;3.28;;;9.10;99.90;;;;;;5031347;28;20214;-84
2024/01/01 10:39:20;;;;;;;7.20;3.10;;;9.00;99.90;;;;;;5023420;28;20198;-82
2024/01/01 10:41:50;;;;;;;4.13;2.55;;;9.10;99.90;;;;;;5033066;28;20476;-82
2024/01/01 10:44:25;;;;;;;13.43;3.47;;;9.20;99.90;;;;;;5027648;28;20313;-84
2024/01/01 10:46:58;;;;;;;8.57;3.65;;;9.30;99.90;;;;;;5024589;28;20209;-81
2024/01/01 10:49:31;;;;;;;11.05;3.35;;;9.30;99.90;;;;;;5022726;28;20244;-83
2024/01/01 10:52:14;;;;;;;7.20;3.13;;;9.50;99.90;;;;;;5026453;28;20225;-82
2024/01/01 10:54:59;;;;;;;8.40;3.30;;;9.50;99.90;;;;;;5022468;28;20201;-83
2024/01/01 10:57:53;;;;;;;6.97;3.45;;;9.40;99.90;;;;;;5028521;28;20624;-83
2024/01/01 11:00:31;;;;;;;17.15;3.00;;;9.30;99.90;;;;;;5029213;28;20681;-83
2024/01/01 11:03:04;;;;;;;7.60;2.90;;;9.30;99.90;;;;;;5029404;28;20213;-82
2024/01/01 11:05:37;;;;;;;7.03;2.60;;;9.40;99.90;;;;;;5032629;28;20216;-82
2024/01/01 11:08:05;;;;;;;5.43;2.40;;;9.40;99.90;;;;;;5031878;28;20237;-82
2024/01/01 11:10:44;;;;;;;8.45;2.80;;;9.40;99.90;;;;;;5026657;28;20223;-83
2024/01/01 11:13:35;;;;;;;5.35;2.28;;;9.20;99.90;;;;;;5025636;28;20610;-83
2024/01/01 11:16:07;;;;;;;11.25;3.58;;;9.30;99.90;;;;;;5012938;28;20201;-83
2024/01/01 11:18:43;;;;;;;10.82;2.95;;;9.40;99.90;;;;;;5018553;28;20209;-83
2024/01/01 11:21:30;;;;;;;9.05;2.55;;;9.50;99.90;;;;;;5023097;28;20236;-84
2024/01/01 11:24:05;;;;;;;8.50;2.58;;;9.60;99.90;;;;;;5027555;28;20664;-84
2024/01/01 11:26:47;;;;;;;6.80;2.10;;;9.60;99.90;;;;;;5032121;28;20196;-82
2024/01/01 11:29:35;;;;;;;6.00;2.90;;;9.70;99.90;;;;;;5030518;28;20227;-82
2024/01/01 11:36:00;;;;;;;8.45;2.30;;;9.80;99.90;;;;;;5027226;28;20205;-82
2024/01/01 11:38:51;;;;;;;11.13;2.47;;;9.90;99.90;;;;;;5034569;28;20680;-83
2024/01/01 11:41:30;;;;;;;4.93;2.03;;;10.10;99.90;;;;;;5025491;28;20237;-83
2024/01/01 11:44:18;;;;;;;6.95;2.10;;;10.10;99.90;;;;;;5019710;28;20259;-84
2024/01/01 11:53:48;;;;;;;6.03;2.35;;;9.90;99.90;;;;;;4912124;29;20206;-83
2024/01/01 11:57:05;;;;;;;8.02;2.00;;;9.90;99.90;;;;;;4978812;28;20313;-84
2024/01/01 12:02:33;;;;;;;10.23;2.88;;;9.70;99.90;;;;;;4982464;23;20260;-71
2024/01/01 12:05:00;;;;;;;7.82;2.60;;;9.70;99.90;;;;;;4987303;28;20221;-73
2024/01/01 12:07:34;;;;;;;5.18;2.03;;;9.60;99.90;;;;;;4987875;28;20234;-73
2024/01/01 12:10:03;;;;;;;6.65;1.98;;;9.60;99.90;;;;;;4992442;28;20210;-72
2024/01/01 12:12:30;;;;;;;8.55;3.40;;;9.40;99.90;;;;;;4984461;28;20281;-71
2024/01/01 12:15:08;;;;;;;7.03;2.08;;;9.40;99.90;;;;;;4992279;28;20273;-73
2024/01/01 12:17:39;;;;;;;6.38;2.47;;;9.30;99.90;;;;;;4987123;28;20329;-71
2024/01/01 12:20:09;;;;;;;4.70;1.95;;;9.40;99.90;;;;;;4991895;28;20202;-72
2024/01/01 12:22:38;;;;;;;4.88;2.00;;;9.30;99.90;;;;;;4987387;28;20313;-74
2024/01/01 12:25:06;;;;;;;5.35;2.45;;;9.30;99.90;;;;;;4991024;28;20305;-72
2024/01/01 12:27:33;;;;;;;5.68;2.45;;;9.20;99.90;;;;;;4990851;28;20226;-72
2024/01/01 12:30:00;;;;;;;6.90;2.38;;;9.30;99.90;;;;;;4990070;28;20237;-73
2024/01/01 12:32:27;;;;;;;5.32;2.03;;;9.40;99.90;;;;;;4991038;28;20269;-69
2024/01/01 12:34:55;;;;;;;5.68;2.65;;;9.50;99.90;;;;;;4991812;28;20206;-72
2024/01/01 12:37:22;;;;;;;4.55;3.13;;;9.40;99.90;;;;;;4990278;28;20602;-72
2024/01/01 12:39:51;;;;;;;7.53;3.17;;;9.30;99.90;;;;;;4988083;28;20206;-71
2024/01/01 12:42:18;;;;;;;6.10;2.45;;;9.20;99.90;;;;;;4987929;28;20203;-72
2024/01/01 12:44:45;;;;;;;5.28;2.92;;;9.20;99.90;;;;;;4994699;28;20523;-72
2024/01/01 12:47:14;;;;;;;14.73;2.50;;;9.20;99.90;;;;;;4994241;28;20253;-71
2024/01/01 12:49:41;;;;;;;7.28;3.38;;;9.30;99.90;;;;;;4993010;28;20676;-71
2024/01/01 12:52:08;;;;;;;7.80;2.28;;;9.40;99.90;;;;;;4994373;28;20211;-72
2024/01/01 12:54:35;;;;;;;3.55;2.20;;;9.40;99.90;;;;;;4994359;28;20198;-73
2024/01/01 12:57:03;;;;;;;7.43;2.45;;;9.40;99.90;;;;;;4991042;28;20226;-74
2024/01/01 12:59:30;;;;;;;6.30;2.58;;;9.40;99.90;;;;;;4992569;28;20669;-73
2024/01/01 13:01:57;;;;;;;4.20;2.28;;;9.50;99.90;;;;;;4993082;28;20220;-73
2024/01/01 13:04:25;;;;;;;5.53;2.90;;;9.40;99.90;;;;;;4990077;28;20708;-71
2024/01/01 13:06:54;;;;;;;7.38;4.10;;;9.50;99.90;;;;;;4992452;28;20254;-72
2024/01/01 13:09:22;;;;;;;7.00;2.47;;;9.40;99.90;;;;;;4993047;28;20206;-72
2024/01/01 13:11:50;;;;;;;11.77;2.33;;;9.50;99.90;;;;;;4982287;28;20207;-73
2024/01/01 13:14:18;;;;;;;4.68;1.92;;;9.50;99.90;;;;;;4986832;28;20256;-73
2024/01/01 13:16:47;;;;;;;3.17;2.28;;;9.40;99.90;;;;;;4989259;28;20230;-72
2024/01/01 13:19:16;;;;;;;7.85;2.95;;;9.40;99.90;;;;;;4985295;28;20222;-72
2024/01/01 13:21:43;;;;;;;11.10;4.80;;;9.40;99.90;;;;;;4988592;28;20575;-74
2024/01/01 13:24:10;;;;;;;3.40;2.05;;;9.40;99.90;;;;;;4985712;28;20261;-72
2024/01/01 13:26:37;;;;;;;5.50;2.00;;;9.40;99.90;;;;;;4992333;28;20659;-73
2024/01/01 13:29:04;;;;;;;15.60;2.80;;;9.30;99.90;;;;;;4984406;28;20238;-72
2024/01/01 13:31:33;;;;;;;5.82;2.33;;;9.30;99.90;;;;;;4983213;28;20210;-73
2024/01/01 13:34:00;;;;;;;4.82;1.88;;;9.30;99.90;;;;;;4989740;28;20206;-73
2024/01/01 13:36:27;;;;;;;5.13;2.15;;;9.50;99.90;;;;;;4991292;28;20198;-74
2024/01/01 13:38:54;;;;;;;4.43;2.30;;;9.50;99.90;;;;;;4988149;28;20606;-73
2024/01/01 13:41:21;;;;;;;4.07;1.80;;;9.50;99.90;;;;;;4991877;28;20252;-72
2024/01/01 13:43:48;;;;;;;4.10;2.05;;;9.50;99.90;;;;;;4993763;28;20696;-72
2024/01/01 13:46:15;;;;;;;16.45;2.10;;;9.60;99.90;;;;;;4991322;28;21603;-76